sensor_id;sensor_type;location;lat;lon;timestamp;temperature;humidity
18335;DHT22;9293;49.524;10.964;2023-04-25T00:01:20;9.10;99.90
18335;DHT22;9293;49.524;10.964;2023-04-25T00:03:49;9.10;99.90
18335;DHT22;9293;49.524;10.964;2023-04-25T00:06:18;9.10;99.90
18335;DHT22;9293;49.524;10.964;2023-04-25T00:08:47;9.10;99.90
18335;DHT22;9293;49.524;10.964;2023-04-25T00:11:15;9.10;99.90
18335;DHT22;9293;49.524;10.964;2023-04-25T00:13:43;9.00;99.90
18335;DHT22;9293;49.524;10.964;2023-04-25T00:16:11;9.10;99.90
18335;DHT22;9293;49.524;10.964;2023-04-25T00:18:42;9.10;99.90
18335;DHT22;9293;49.524;10.964;2023-04-25T00:21:10;9.10;99.90
18335;DHT22;9293;49.524;10.964;2023-04-25T00:23:38;9.10;99.90
18335;DHT22;9293;49.524;10.964;2023-04-25T00:26:07;9.00;99.90
18335;DHT22;9293;49.524;10.964;2023-04-25T00:28:35;9.00;99.90
18335;DHT22;9293;49.524;10.964;2023-04-25T00:31:03;9.00;99.90
18335;DHT22;9293;49.524;10.964;2023-04-25T00:33:31;9.10;99.90
18335;DHT22;9293;49.524;10.964;2023-04-25T00:35:59;9.10;99.90
18335;DHT22;9293;49.524;10.964;2023-04-25T00:38:30;9.10;99.90
18335;DHT22;9293;49.524;10.964;2023-04-25T00:41:01;9.00;99.90
18335;DHT22;9293;49.524;10.964;2023-04-25T00:43:29;9.00;99.90
18335;DHT22;9293;49.524;10.964;2023-04-25T00:45:58;9.00;99.90
18335;DHT22;9293;49.524;10.964;2023-04-25T00:48:27;9.00;99.90
18335;DHT22;9293;49.524;10.964;2023-04-25T00:50:58;9.00;99.90
18335;DHT22;9293;49.524;10.964;2023-04-25T00:53:27;9.00;99.90
18335;DHT22;9293;49.524;10.964;2023-04-25T00:55:55;9.10;99.90
18335;DHT22;9293;49.524;10.964;2023-04-25T00:58:23;9.10;99.90
18335;DHT22;9293;49.524;10.964;2023-04-25T01:00:52;9.00;99.90
18335;DHT22;9293;49.524;10.964;2023-04-25T01:03:20;9.00;99.90
18335;DHT22;9293;49.524;10.964;2023-04-25T01:05:49;9.00;99.90
18335;DHT22;9293;49.524;10.964;2023-04-25T01:11:44;9.10;99.90
18335;DHT22;9293;49.524;10.964;2023-04-25T01:14:12;9.00;99.90
18335;DHT22;9293;49.524;10.964;2023-04-25T01:16:40;8.90;99.90
18335;DHT22;9293;49.524;10.964;2023-04-25T01:19:10;8.90;99.90
18335;DHT22;9293;49.524;10.964;2023-04-25T01:21:41;8.80;99.90
18335;DHT22;9293;49.524;10.964;2023-04-25T01:24:09;8.90;99.90
18335;DHT22;9293;49.524;10.964;2023-04-25T01:26:37;8.90;99.90
18335;DHT22;9293;49.524;10.964;2023-04-25T01:29:07;8.90;99.90
18335;DHT22;9293;49.524;10.964;2023-04-25T01:31:35;8.90;99.90
18335;DHT22;9293;49.524;10.964;2023-04-25T01:34:04;9.00;99.90
18335;DHT22;9293;49.524;10.964;2023-04-25T01:36:32;9.00;99.90
18335;DHT22;9293;49.524;10.964;2023-04-25T01:39:01;9.00;99.90
18335;DHT22;9293;49.524;10.964;2023-04-25T01:41:29;9.00;99.90
18335;DHT22;9293;49.524;10.964;2023-04-25T01:43:58;9.00;99.90
18335;DHT22;9293;49.524;10.964;2023-04-25T01:46:26;9.10;99.90
18335;DHT22;9293;49.524;10.964;2023-04-25T01:48:54;9.00;99.90
18335;DHT22;9293;49.524;10.964;2023-04-25T01:51:22;9.00;99.90
18335;DHT22;9293;49.524;10.964;2023-04-25T01:53:51;9.00;99.90
18335;DHT22;9293;49.524;10.964;2023-04-25T01:56:19;9.00;99.90
18335;DHT22;9293;49.524;10.964;2023-04-25T01:58:48;9.00;99.90
18335;DHT22;9293;49.524;10.964;2023-04-25T02:01:19;8.90;99.90
18335;DHT22;9293;49.524;10.964;2023-04-25T02:04:02;8.90;99.90
18335;DHT22;9293;49.524;10.964;2023-04-25T02:06:35;8.90;99.90
18335;DHT22;9293;49.524;10.964;2023-04-25T02:09:07;9.00;99.90
18335;DHT22;9293;49.524;10.964;2023-04-25T02:11:43;9.00;99.90
18335;DHT22;9293;49.524;10.964;2023-04-25T02:14:23;9.00;99.90
18335;DHT22;9293;49.524;10.964;2023-04-25T02:17:03;9.00;99.90
18335;DHT22;9293;49.524;10.964;2023-04-25T02:19:31;8.90;99.90
18335;DHT22;9293;49.524;10.964;2023-04-25T02:21:59;8.90;99.90
18335;DHT22;9293;49.524;10.964;2023-04-25T02:24:28;8.80;99.90
18335;DHT22;9293;49.524;10.964;2023-04-25T02:26:56;8.80;99.90
18335;DHT22;9293;49.524;10.964;2023-04-25T02:29:24;8.80;99.90
18335;DHT22;9293;49.524;10.964;2023-04-25T02:31:52;8.80;99.90
18335;DHT22;9293;49.524;10.964;2023-04-25T02:34:20;8.80;99.90
18335;DHT22;9293;49.524;10.964;2023-04-25T02:36:48;8.80;99.90
18335;DHT22;9293;49.524;10.964;2023-04-25T02:39:18;8.80;99.90
18335;DHT22;9293;49.524;10.964;2023-04-25T02:41:47;8.70;99.90
18335;DHT22;9293;49.524;10.964;2023-04-25T02:44:15;8.70;99.90
18335;DHT22;9293;49.524;10.964;2023-04-25T02:46:44;8.70;99.90
18335;DHT22;9293;49.524;10.964;2023-04-25T02:49:13;8.70;99.90
18335;DHT22;9293;49.524;10.964;2023-04-25T02:51:41;8.70;99.90
18335;DHT22;9293;49.524;10.964;2023-04-25T02:54:09;8.70;99.90
18335;DHT22;9293;49.524;10.964;2023-04-25T02:56:42;8.70;99.90
18335;DHT22;9293;49.524;10.964;2023-04-25T02:59:15;8.70;99.90
18335;DHT22;9293;49.524;10.964;2023-04-25T03:01:54;8.60;99.90
18335;DHT22;9293;49.524;10.964;2023-04-25T03:04:23;8.60;99.90
18335;DHT22;9293;49.524;10.964;2023-04-25T03:06:51;8.60;99.90
18335;DHT22;9293;49.524;10.964;2023-04-25T03:09:20;8.60;99.90
18335;DHT22;9293;49.524;10.964;2023-04-25T03:11:51;8.50;99.90
18335;DHT22;9293;49.524;10.964;2023-04-25T03:14:19;8.50;99.90
18335;DHT22;9293;49.524;10.964;2023-04-25T03:16:47;8.60;99.90
18335;DHT22;9293;49.524;10.964;2023-04-25T03:19:16;8.50;99.90
18335;DHT22;9293;49.524;10.964;2023-04-25T03:21:45;8.50;99.90
18335;DHT22;9293;49.524;10.964;2023-04-25T03:24:13;8.50;99.90
18335;DHT22;9293;49.524;10.964;2023-04-25T03:26:41;8.50;99.90
18335;DHT22;9293;49.524;10.964;2023-04-25T03:29:09;8.40;99.90
18335;DHT22;9293;49.524;10.964;2023-04-25T03:31:39;8.40;99.90
18335;DHT22;9293;49.524;10.964;2023-04-25T03:34:08;8.30;99.90
18335;DHT22;9293;49.524;10.964;2023-04-25T03:36:36;8.30;99.90
18335;DHT22;9293;49.524;10.964;2023-04-25T03:39:07;8.40;99.90
18335;DHT22;9293;49.524;10.964;2023-04-25T03:41:37;8.30;99.90
18335;DHT22;9293;49.524;10.964;2023-04-25T03:44:11;8.20;99.90
18335;DHT22;9293;49.524;10.964;2023-04-25T03:46:39;8.10;99.90
18335;DHT22;9293;49.524;10.964;2023-04-25T03:49:08;8.10;99.90
18335;DHT22;9293;49.524;10.964;2023-04-25T03:51:53;8.00;99.90
18335;DHT22;9293;49.524;10.964;2023-04-25T03:54:21;8.00;99.90
18335;DHT22;9293;49.524;10.964;2023-04-25T03:57:15;8.10;99.90
18335;DHT22;9293;49.524;10.964;2023-04-25T03:59:44;8.10;99.90
18335;DHT22;9293;49.524;10.964;2023-04-25T04:02:14;8.10;99.90
18335;DHT22;9293;49.524;10.964;2023-04-25T04:04:42;8.20;99.90
18335;DHT22;9293;49.524;10.964;2023-04-25T04:07:13;8.20;99.90
18335;DHT22;9293;49.524;10.964;2023-04-25T04:09:46;8.20;99.90
18335;DHT22;9293;49.524;10.964;2023-04-25T04:12:22;8.20;99.90
18335;DHT22;9293;49.524;10.964;2023-04-25T04:14:50;8.20;99.90
18335;DHT22;9293;49.524;10.964;2023-04-25T04:17:18;8.20;99.90
18335;DHT22;9293;49.524;10.964;2023-04-25T04:19:47;8.20;99.90
18335;DHT22;9293;49.524;10.964;2023-04-25T04:22:19;8.20;99.90
18335;DHT22;9293;49.524;10.964;2023-04-25T04:24:51;8.20;99.90
18335;DHT22;9293;49.524;10.964;2023-04-25T04:27:28;8.10;99.90
18335;DHT22;9293;49.524;10.964;2023-04-25T04:30:17;8.10;99.90
18335;DHT22;9293;49.524;10.964;2023-04-25T04:32:56;8.10;99.90
18335;DHT22;9293;49.524;10.964;2023-04-25T04:35:24;8.20;99.90
18335;DHT22;9293;49.524;10.964;2023-04-25T04:37:53;8.10;99.90
18335;DHT22;9293;49.524;10.964;2023-04-25T04:40:23;8.10;99.90
18335;DHT22;9293;49.524;10.964;2023-04-25T04:43:06;8.10;99.90
18335;DHT22;9293;49.524;10.964;2023-04-25T04:45:56;8.10;99.90
18335;DHT22;9293;49.524;10.964;2023-04-25T04:49:12;8.10;99.90
18335;DHT22;9293;49.524;10.964;2023-04-25T04:52:08;8.00;99.90
18335;DHT22;9293;49.524;10.964;2023-04-25T04:54:51;8.10;99.90
18335;DHT22;9293;49.524;10.964;2023-04-25T04:57:40;8.10;99.90
18335;DHT22;9293;49.524;10.964;2023-04-25T05:00:44;8.00;99.90
18335;DHT22;9293;49.524;10.964;2023-04-25T05:03:32;8.10;99.90
18335;DHT22;9293;49.524;10.964;2023-04-25T05:06:30;8.10;99.90
18335;DHT22;9293;49.524;10.964;2023-04-25T05:09:17;8.20;99.90
18335;DHT22;9293;49.524;10.964;2023-04-25T05:12:03;8.30;99.90
18335;DHT22;9293;49.524;10.964;2023-04-25T05:14:44;8.30;99.90
18335;DHT22;9293;49.524;10.964;2023-04-25T05:17:49;8.20;99.90
18335;DHT22;9293;49.524;10.964;2023-04-25T05:20:20;8.30;99.90
18335;DHT22;9293;49.524;10.964;2023-04-25T05:23:10;8.20;99.90
18335;DHT22;9293;49.524;10.964;2023-04-25T05:25:52;8.30;99.90
18335;DHT22;9293;49.524;10.964;2023-04-25T05:28:31;8.30;99.90
18335;DHT22;9293;49.524;10.964;2023-04-25T05:31:22;8.30;99.90
18335;DHT22;9293;49.524;10.964;2023-04-25T05:33:57;8.40;99.90
18335;DHT22;9293;49.524;10.964;2023-04-25T05:36:34;8.40;99.90
18335;DHT22;9293;49.524;10.964;2023-04-25T05:39:02;8.40;99.90
18335;DHT22;9293;49.524;10.964;2023-04-25T05:42:04;8.40;99.90
18335;DHT22;9293;49.524;10.964;2023-04-25T05:44:57;8.40;99.90
18335;DHT22;9293;49.524;10.964;2023-04-25T05:47:31;8.30;99.90
18335;DHT22;9293;49.524;10.964;2023-04-25T05:50:07;8.30;99.90
18335;DHT22;9293;49.524;10.964;2023-04-25T05:52:47;8.30;99.90
18335;DHT22;9293;49.524;10.964;2023-04-25T05:55:24;8.30;99.90
18335;DHT22;9293;49.524;10.964;2023-04-25T05:57:53;8.30;99.90
18335;DHT22;9293;49.524;10.964;2023-04-25T06:00:22;8.30;99.90
18335;DHT22;9293;49.524;10.964;2023-04-25T06:02:50;8.30;99.90
18335;DHT22;9293;49.524;10.964;2023-04-25T06:05:19;8.30;99.90
18335;DHT22;9293;49.524;10.964;2023-04-25T06:07:48;8.30;99.90
18335;DHT22;9293;49.524;10.964;2023-04-25T06:10:16;8.10;99.90
18335;DHT22;9293;49.524;10.964;2023-04-25T06:12:44;8.10;99.90
18335;DHT22;9293;49.524;10.964;2023-04-25T06:15:14;8.10;99.90
18335;DHT22;9293;49.524;10.964;2023-04-25T06:17:54;8.20;99.90
18335;DHT22;9293;49.524;10.964;2023-04-25T06:20:23;8.30;99.90
18335;DHT22;9293;49.524;10.964;2023-04-25T06:22:54;8.30;99.90
18335;DHT22;9293;49.524;10.964;2023-04-25T06:25:52;8.30;99.90
18335;DHT22;9293;49.524;10.964;2023-04-25T06:28:21;8.30;99.90
18335;DHT22;9293;49.524;10.964;2023-04-25T06:30:50;8.20;99.90
18335;DHT22;9293;49.524;10.964;2023-04-25T06:33:19;8.40;99.90
18335;DHT22;9293;49.524;10.964;2023-04-25T06:35:48;8.40;99.90
18335;DHT22;9293;49.524;10.964;2023-04-25T06:38:22;8.40;99.90
18335;DHT22;9293;49.524;10.964;2023-04-25T06:40:51;8.40;99.90
18335;DHT22;9293;49.524;10.964;2023-04-25T06:43:19;8.60;99.90
18335;DHT22;9293;49.524;10.964;2023-04-25T06:45:54;8.70;99.90
18335;DHT22;9293;49.524;10.964;2023-04-25T06:48:24;8.80;99.90
18335;DHT22;9293;49.524;10.964;2023-04-25T06:50:55;8.80;99.90
18335;DHT22;9293;49.524;10.964;2023-04-25T06:53:25;8.90;99.90
18335;DHT22;9293;49.524;10.964;2023-04-25T06:55:59;8.90;99.90
18335;DHT22;9293;49.524;10.964;2023-04-25T06:58:42;8.80;99.90
18335;DHT22;9293;49.524;10.964;2023-04-25T07:01:28;8.80;99.90
18335;DHT22;9293;49.524;10.964;2023-04-25T07:03:59;8.70;99.90
18335;DHT22;9293;49.524;10.964;2023-04-25T07:06:29;8.50;99.90
18335;DHT22;9293;49.524;10.964;2023-04-25T07:08:57;8.50;99.90
18335;DHT22;9293;49.524;10.964;2023-04-25T07:11:25;8.40;99.90
18335;DHT22;9293;49.524;10.964;2023-04-25T07:13:55;8.30;99.90
18335;DHT22;9293;49.524;10.964;2023-04-25T07:16:24;8.40;99.90
18335;DHT22;9293;49.524;10.964;2023-04-25T07:18:52;8.40;99.90
18335;DHT22;9293;49.524;10.964;2023-04-25T07:21:20;8.30;99.90
18335;DHT22;9293;49.524;10.964;2023-04-25T07:23:50;8.30;99.90
18335;DHT22;9293;49.524;10.964;2023-04-25T07:26:27;8.30;99.90
18335;DHT22;9293;49.524;10.964;2023-04-25T07:29:21;8.30;99.90
18335;DHT22;9293;49.524;10.964;2023-04-25T07:31:49;8.30;99.90
18335;DHT22;9293;49.524;10.964;2023-04-25T07:34:19;8.30;99.90
18335;DHT22;9293;49.524;10.964;2023-04-25T07:36:48;8.40;99.90
18335;DHT22;9293;49.524;10.964;2023-04-25T07:39:16;8.30;99.90
18335;DHT22;9293;49.524;10.964;2023-04-25T07:41:44;8.10;99.90
18335;DHT22;9293;49.524;10.964;2023-04-25T07:44:18;8.00;99.90
18335;DHT22;9293;49.524;10.964;2023-04-25T07:46:47;8.00;99.90
18335;DHT22;9293;49.524;10.964;2023-04-25T07:49:15;8.00;99.90
18335;DHT22;9293;49.524;10.964;2023-04-25T07:51:44;8.00;99.90
18335;DHT22;9293;49.524;10.964;2023-04-25T07:54:15;8.10;99.90
18335;DHT22;9293;49.524;10.964;2023-04-25T07:56:48;8.10;99.90
18335;DHT22;9293;49.524;10.964;2023-04-25T07:59:25;8.30;99.90
18335;DHT22;9293;49.524;10.964;2023-04-25T08:02:01;8.50;99.90
18335;DHT22;9293;49.524;10.964;2023-04-25T08:04:29;8.70;99.90
18335;DHT22;9293;49.524;10.964;2023-04-25T08:07:02;8.90;99.90
18335;DHT22;9293;49.524;10.964;2023-04-25T08:09:38;9.00;99.90
18335;DHT22;9293;49.524;10.964;2023-04-25T08:12:12;8.90;99.90
18335;DHT22;9293;49.524;10.964;2023-04-25T08:14:40;9.00;99.90
18335;DHT22;9293;49.524;10.964;2023-04-25T08:17:09;9.00;99.90
18335;DHT22;9293;49.524;10.964;2023-04-25T08:19:40;8.90;99.90
18335;DHT22;9293;49.524;10.964;2023-04-25T08:22:15;8.90;99.90
18335;DHT22;9293;49.524;10.964;2023-04-25T08:24:51;8.90;99.90
18335;DHT22;9293;49.524;10.964;2023-04-25T08:27:20;8.90;99.90
18335;DHT22;9293;49.524;10.964;2023-04-25T08:29:48;9.00;99.90
18335;DHT22;9293;49.524;10.964;2023-04-25T08:32:18;9.30;99.90
18335;DHT22;9293;49.524;10.964;2023-04-25T08:35:03;9.70;99.90
18335;DHT22;9293;49.524;10.964;2023-04-25T08:37:34;9.70;99.90
18335;DHT22;9293;49.524;10.964;2023-04-25T08:40:11;9.80;99.90
18335;DHT22;9293;49.524;10.964;2023-04-25T08:43:06;9.70;99.90
18335;DHT22;9293;49.524;10.964;2023-04-25T08:45:40;9.50;99.90
18335;DHT22;9293;49.524;10.964;2023-04-25T08:48:19;9.20;99.90
18335;DHT22;9293;49.524;10.964;2023-04-25T08:53:19;8.80;99.90
18335;DHT22;9293;49.524;10.964;2023-04-25T08:55:50;8.80;99.90
18335;DHT22;9293;49.524;10.964;2023-04-25T08:58:23;8.80;99.90
18335;DHT22;9293;49.524;10.964;2023-04-25T09:00:52;8.70;99.90
18335;DHT22;9293;49.524;10.964;2023-04-25T09:03:23;8.80;99.90
18335;DHT22;9293;49.524;10.964;2023-04-25T09:05:52;8.90;99.90
18335;DHT22;9293;49.524;10.964;2023-04-25T09:08:21;9.10;99.90
18335;DHT22;9293;49.524;10.964;2023-04-25T09:10:49;9.50;99.90
18335;DHT22;9293;49.524;10.964;2023-04-25T09:13:24;10.00;99.90
18335;DHT22;9293;49.524;10.964;2023-04-25T09:16:25;10.90;99.90
18335;DHT22;9293;49.524;10.964;2023-04-25T09:18:58;11.90;99.90
18335;DHT22;9293;49.524;10.964;2023-04-25T09:21:27;12.60;99.90
18335;DHT22;9293;49.524;10.964;2023-04-25T09:23:55;12.80;99.90
18335;DHT22;9293;49.524;10.964;2023-04-25T09:26:24;12.40;99.90
18335;DHT22;9293;49.524;10.964;2023-04-25T09:29:07;12.50;99.90
18335;DHT22;9293;49.524;10.964;2023-04-25T09:31:39;12.80;99.90
18335;DHT22;9293;49.524;10.964;2023-04-25T09:34:09;13.50;99.90
18335;DHT22;9293;49.524;10.964;2023-04-25T09:36:50;13.70;99.90
18335;DHT22;9293;49.524;10.964;2023-04-25T09:39:52;13.90;99.90
18335;DHT22;9293;49.524;10.964;2023-04-25T09:42:21;14.50;99.90
18335;DHT22;9293;49.524;10.964;2023-04-25T09:44:59;14.80;99.90
18335;DHT22;9293;49.524;10.964;2023-04-25T09:47:36;15.20;99.90
18335;DHT22;9293;49.524;10.964;2023-04-25T09:50:13;15.40;99.90
18335;DHT22;9293;49.524;10.964;2023-04-25T09:52:48;15.10;99.90
18335;DHT22;9293;49.524;10.964;2023-04-25T09:55:37;14.80;99.90
18335;DHT22;9293;49.524;10.964;2023-04-25T09:58:05;14.80;99.90
18335;DHT22;9293;49.524;10.964;2023-04-25T10:00:36;14.70;99.90
18335;DHT22;9293;49.524;10.964;2023-04-25T10:03:19;14.90;99.90
18335;DHT22;9293;49.524;10.964;2023-04-25T10:06:04;14.50;99.90
18335;DHT22;9293;49.524;10.964;2023-04-25T10:08:35;14.30;99.90
18335;DHT22;9293;49.524;10.964;2023-04-25T10:11:05;14.50;99.90
18335;DHT22;9293;49.524;10.964;2023-04-25T10:13:33;14.90;99.90
18335;DHT22;9293;49.524;10.964;2023-04-25T10:16:03;15.30;99.90
18335;DHT22;9293;49.524;10.964;2023-04-25T10:18:31;15.70;99.90
18335;DHT22;9293;49.524;10.964;2023-04-25T10:21:04;15.60;99.90
18335;DHT22;9293;49.524;10.964;2023-04-25T10:23:32;15.90;99.90
18335;DHT22;9293;49.524;10.964;2023-04-25T10:26:02;15.70;99.90
18335;DHT22;9293;49.524;10.964;2023-04-25T10:28:30;15.30;99.90
18335;DHT22;9293;49.524;10.964;2023-04-25T10:31:18;14.60;99.90
18335;DHT22;9293;49.524;10.964;2023-04-25T10:33:49;14.40;99.90
18335;DHT22;9293;49.524;10.964;2023-04-25T10:36:23;14.60;99.90
18335;DHT22;9293;49.524;10.964;2023-04-25T10:38:51;15.00;99.90
18335;DHT22;9293;49.524;10.964;2023-04-25T10:41:20;14.80;99.90
18335;DHT22;9293;49.524;10.964;2023-04-25T10:43:58;14.20;99.90
18335;DHT22;9293;49.524;10.964;2023-04-25T10:46:29;14.10;99.90
18335;DHT22;9293;49.524;10.964;2023-04-25T10:49:01;14.50;99.90
18335;DHT22;9293;49.524;10.964;2023-04-25T10:51:32;14.80;99.90
18335;DHT22;9293;49.524;10.964;2023-04-25T10:54:20;14.70;99.90
18335;DHT22;9293;49.524;10.964;2023-04-25T10:56:50;14.30;99.90
18335;DHT22;9293;49.524;10.964;2023-04-25T10:59:18;14.10;99.90
18335;DHT22;9293;49.524;10.964;2023-04-25T11:01:47;13.70;99.90
18335;DHT22;9293;49.524;10.964;2023-04-25T11:04:23;13.60;99.90
18335;DHT22;9293;49.524;10.964;2023-04-25T11:09:53;13.50;99.90
18335;DHT22;9293;49.524;10.964;2023-04-25T11:12:21;13.60;99.90
18335;DHT22;9293;49.524;10.964;2023-04-25T11:14:57;13.90;99.90
18335;DHT22;9293;49.524;10.964;2023-04-25T11:17:26;14.00;99.90
18335;DHT22;9293;49.524;10.964;2023-04-25T11:19:54;14.30;99.90
18335;DHT22;9293;49.524;10.964;2023-04-25T11:22:23;14.50;99.90
18335;DHT22;9293;49.524;10.964;2023-04-25T11:24:51;14.50;99.90
18335;DHT22;9293;49.524;10.964;2023-04-25T11:27:20;14.30;99.90
18335;DHT22;9293;49.524;10.964;2023-04-25T11:29:48;14.20;99.90
18335;DHT22;9293;49.524;10.964;2023-04-25T11:32:17;14.50;99.90
18335;DHT22;9293;49.524;10.964;2023-04-25T11:34:47;14.50;99.90
18335;DHT22;9293;49.524;10.964;2023-04-25T11:37:15;14.50;99.90
18335;DHT22;9293;49.524;10.964;2023-04-25T11:39:43;14.40;99.90
18335;DHT22;9293;49.524;10.964;2023-04-25T11:42:13;14.70;99.90
18335;DHT22;9293;49.524;10.964;2023-04-25T11:44:41;15.00;99.90
18335;DHT22;9293;49.524;10.964;2023-04-25T11:47:09;15.30;99.90
18335;DHT22;9293;49.524;10.964;2023-04-25T11:49:37;15.70;99.90
18335;DHT22;9293;49.524;10.964;2023-04-25T11:52:06;15.40;99.90
18335;DHT22;9293;49.524;10.964;2023-04-25T11:54:35;15.30;99.90
18335;DHT22;9293;49.524;10.964;2023-04-25T11:57:07;15.20;99.90
18335;DHT22;9293;49.524;10.964;2023-04-25T11:59:35;15.30;99.90
18335;DHT22;9293;49.524;10.964;2023-04-25T12:02:03;15.10;99.90
18335;DHT22;9293;49.524;10.964;2023-04-25T12:04:36;14.90;99.90
18335;DHT22;9293;49.524;10.964;2023-04-25T12:07:05;14.60;99.90
18335;DHT22;9293;49.524;10.964;2023-04-25T12:09:37;14.40;99.90
18335;DHT22;9293;49.524;10.964;2023-04-25T12:12:05;14.40;99.90
18335;DHT22;9293;49.524;10.964;2023-04-25T12:14:37;14.40;99.90
18335;DHT22;9293;49.524;10.964;2023-04-25T12:17:08;14.10;99.90
18335;DHT22;9293;49.524;10.964;2023-04-25T12:19:37;14.10;99.90
18335;DHT22;9293;49.524;10.964;2023-04-25T12:22:21;13.90;99.90
18335;DHT22;9293;49.524;10.964;2023-04-25T12:24:50;14.00;99.90
18335;DHT22;9293;49.524;10.964;2023-04-25T12:27:18;13.80;99.90
18335;DHT22;9293;49.524;10.964;2023-04-25T12:29:51;13.40;99.90
18335;DHT22;9293;49.524;10.964;2023-04-25T12:32:20;13.20;99.90
18335;DHT22;9293;49.524;10.964;2023-04-25T12:34:48;13.00;99.90
18335;DHT22;9293;49.524;10.964;2023-04-25T12:37:16;12.90;99.90
18335;DHT22;9293;49.524;10.964;2023-04-25T12:39:44;13.10;99.90
18335;DHT22;9293;49.524;10.964;2023-04-25T12:42:13;13.10;99.90
18335;DHT22;9293;49.524;10.964;2023-04-25T12:44:41;13.00;99.90
18335;DHT22;9293;49.524;10.964;2023-04-25T12:47:11;13.00;99.90
18335;DHT22;9293;49.524;10.964;2023-04-25T12:49:39;13.20;99.90
18335;DHT22;9293;49.524;10.964;2023-04-25T12:52:07;13.20;99.90
18335;DHT22;9293;49.524;10.964;2023-04-25T12:54:35;13.30;99.90
18335;DHT22;9293;49.524;10.964;2023-04-25T12:57:04;13.70;99.90
18335;DHT22;9293;49.524;10.964;2023-04-25T12:59:32;14.10;99.90
18335;DHT22;9293;49.524;10.964;2023-04-25T13:02:00;14.10;99.90
18335;DHT22;9293;49.524;10.964;2023-04-25T13:04:31;14.10;99.90
18335;DHT22;9293;49.524;10.964;2023-04-25T13:07:00;13.80;99.90
18335;DHT22;9293;49.524;10.964;2023-04-25T13:09:28;13.40;99.90
18335;DHT22;9293;49.524;10.964;2023-04-25T13:11:59;13.50;99.90
18335;DHT22;9293;49.524;10.964;2023-04-25T13:14:27;13.50;99.90
18335;DHT22;9293;49.524;10.964;2023-04-25T13:16:55;13.60;99.90
18335;DHT22;9293;49.524;10.964;2023-04-25T13:19:24;13.60;99.90
18335;DHT22;9293;49.524;10.964;2023-04-25T13:21:52;13.50;99.90
18335;DHT22;9293;49.524;10.964;2023-04-25T13:24:20;13.40;99.90
18335;DHT22;9293;49.524;10.964;2023-04-25T13:26:48;13.30;99.90
18335;DHT22;9293;49.524;10.964;2023-04-25T13:29:18;13.20;99.90
18335;DHT22;9293;49.524;10.964;2023-04-25T13:31:46;13.00;99.90
18335;DHT22;9293;49.524;10.964;2023-04-25T13:34:14;12.80;99.90
18335;DHT22;9293;49.524;10.964;2023-04-25T13:36:42;12.70;99.90
18335;DHT22;9293;49.524;10.964;2023-04-25T13:39:10;12.60;99.90
18335;DHT22;9293;49.524;10.964;2023-04-25T13:41:39;12.50;99.90
18335;DHT22;9293;49.524;10.964;2023-04-25T13:44:07;12.40;99.90
18335;DHT22;9293;49.524;10.964;2023-04-25T13:46:35;12.30;99.90
18335;DHT22;9293;49.524;10.964;2023-04-25T13:49:07;12.30;99.90
18335;DHT22;9293;49.524;10.964;2023-04-25T13:51:39;12.40;99.90
18335;DHT22;9293;49.524;10.964;2023-04-25T13:54:07;12.50;99.90
18335;DHT22;9293;49.524;10.964;2023-04-25T13:56:35;12.70;99.90
18335;DHT22;9293;49.524;10.964;2023-04-25T13:59:04;12.80;99.90
18335;DHT22;9293;49.524;10.964;2023-04-25T14:01:32;13.00;99.90
18335;DHT22;9293;49.524;10.964;2023-04-25T14:04:02;13.00;99.90
18335;DHT22;9293;49.524;10.964;2023-04-25T14:06:33;12.90;99.90
18335;DHT22;9293;49.524;10.964;2023-04-25T14:09:02;12.80;99.90
18335;DHT22;9293;49.524;10.964;2023-04-25T14:11:32;12.80;99.90
18335;DHT22;9293;49.524;10.964;2023-04-25T14:14:00;12.70;99.90
18335;DHT22;9293;49.524;10.964;2023-04-25T14:16:28;12.40;99.90
18335;DHT22;9293;49.524;10.964;2023-04-25T14:18:57;12.20;99.90
18335;DHT22;9293;49.524;10.964;2023-04-25T14:21:26;12.00;99.90
18335;DHT22;9293;49.524;10.964;2023-04-25T14:23:54;11.90;99.90
18335;DHT22;9293;49.524;10.964;2023-04-25T14:26:23;11.90;99.90
18335;DHT22;9293;49.524;10.964;2023-04-25T14:28:51;11.80;99.90
18335;DHT22;9293;49.524;10.964;2023-04-25T14:31:19;11.80;99.90
18335;DHT22;9293;49.524;10.964;2023-04-25T14:33:47;11.60;99.90
18335;DHT22;9293;49.524;10.964;2023-04-25T14:36:16;11.60;99.90
18335;DHT22;9293;49.524;10.964;2023-04-25T14:38:44;11.50;99.90
18335;DHT22;9293;49.524;10.964;2023-04-25T14:41:12;11.60;99.90
18335;DHT22;9293;49.524;10.964;2023-04-25T14:43:40;11.50;99.90
18335;DHT22;9293;49.524;10.964;2023-04-25T14:46:09;11.50;99.90
18335;DHT22;9293;49.524;10.964;2023-04-25T14:48:41;11.50;99.90
18335;DHT22;9293;49.524;10.964;2023-04-25T14:51:09;11.50;99.90
18335;DHT22;9293;49.524;10.964;2023-04-25T14:53:39;11.40;99.90
18335;DHT22;9293;49.524;10.964;2023-04-25T14:56:20;11.40;99.90
18335;DHT22;9293;49.524;10.964;2023-04-25T14:58:48;11.40;99.90
18335;DHT22;9293;49.524;10.964;2023-04-25T15:01:16;11.50;99.90
18335;DHT22;9293;49.524;10.964;2023-04-25T15:03:44;11.50;99.90
18335;DHT22;9293;49.524;10.964;2023-04-25T15:06:13;11.40;99.90
18335;DHT22;9293;49.524;10.964;2023-04-25T15:08:41;11.40;99.90
18335;DHT22;9293;49.524;10.964;2023-04-25T15:11:10;11.30;99.90
18335;DHT22;9293;49.524;10.964;2023-04-25T15:13:38;11.30;99.90
18335;DHT22;9293;49.524;10.964;2023-04-25T15:16:06;11.30;99.90
18335;DHT22;9293;49.524;10.964;2023-04-25T15:18:35;11.20;99.90
18335;DHT22;9293;49.524;10.964;2023-04-25T15:21:03;11.10;99.90
18335;DHT22;9293;49.524;10.964;2023-04-25T15:23:31;11.00;99.90
18335;DHT22;9293;49.524;10.964;2023-04-25T15:25:59;11.00;99.90
18335;DHT22;9293;49.524;10.964;2023-04-25T15:28:28;10.90;99.90
18335;DHT22;9293;49.524;10.964;2023-04-25T15:30:59;11.00;99.90
18335;DHT22;9293;49.524;10.964;2023-04-25T15:33:27;11.00;99.90
18335;DHT22;9293;49.524;10.964;2023-04-25T15:35:55;11.00;99.90
18335;DHT22;9293;49.524;10.964;2023-04-25T15:38:24;11.10;99.90
18335;DHT22;9293;49.524;10.964;2023-04-25T15:40:52;11.20;99.90
18335;DHT22;9293;49.524;10.964;2023-04-25T15:43:20;11.30;99.90
18335;DHT22;9293;49.524;10.964;2023-04-25T15:45:48;11.40;99.90
18335;DHT22;9293;49.524;10.964;2023-04-25T15:48:17;11.40;99.90
18335;DHT22;9293;49.524;10.964;2023-04-25T15:50:45;11.50;99.90
18335;DHT22;9293;49.524;10.964;2023-04-25T15:53:13;11.60;99.90
18335;DHT22;9293;49.524;10.964;2023-04-25T15:55:41;11.60;99.90
18335;DHT22;9293;49.524;10.964;2023-04-25T15:58:09;11.80;99.90
18335;DHT22;9293;49.524;10.964;2023-04-25T16:00:38;11.90;99.90
18335;DHT22;9293;49.524;10.964;2023-04-25T16:03:07;12.10;99.90
18335;DHT22;9293;49.524;10.964;2023-04-25T16:05:36;12.30;99.90
18335;DHT22;9293;49.524;10.964;2023-04-25T16:08:04;12.30;99.90
18335;DHT22;9293;49.524;10.964;2023-04-25T16:10:32;12.30;99.90
18335;DHT22;9293;49.524;10.964;2023-04-25T16:13:00;12.30;99.90
18335;DHT22;9293;49.524;10.964;2023-04-25T16:15:28;12.20;99.90
18335;DHT22;9293;49.524;10.964;2023-04-25T16:17:59;12.10;99.90